createdAt,value
2019-04-22T00:00:26.032Z,9.47
2019-04-22T00:02:58.121Z,9.43
2019-04-22T00:05:53.213Z,6.93
2019-04-22T00:08:24.794Z,7.37
2019-04-22T00:10:54.026Z,6.63
2019-04-22T00:13:36.410Z,7.30
2019-04-22T00:15:56.537Z,6.63
2019-04-22T00:18:50.440Z,6.13
2019-04-22T00:21:08.642Z,7.80
2019-04-22T00:23:37.711Z,6.07
2019-04-22T00:26:10.956Z,5.50
2019-04-22T00:28:36.610Z,5.23
2019-04-22T00:31:29.896Z,8.97
2019-04-22T00:33:57.794Z,5.70
2019-04-22T00:36:36.608Z,6.33
2019-04-22T00:39:08.632Z,5.83
2019-04-22T00:41:35.829Z,5.90
2019-04-22T00:44:15.391Z,5.37
2019-04-22T00:46:46.823Z,5.97
2019-04-22T00:50:00.204Z,7.73
2019-04-22T00:51:52.425Z,6.73
2019-04-22T00:54:21.448Z,5.20
2019-04-22T00:56:59.233Z,5.67
2019-04-22T00:59:23.351Z,6.77
2019-04-22T01:02:03.691Z,6.23
2019-04-22T01:04:34.641Z,7.77
2019-04-22T01:06:57.577Z,5.10
2019-04-22T01:09:40.088Z,4.97
2019-04-22T01:12:07.322Z,5.13
2019-04-22T01:14:41.728Z,5.97
2019-04-22T01:17:11.618Z,5.63
2019-04-22T01:19:52.639Z,5.40
2019-04-22T01:22:22.385Z,5.33
2019-04-22T01:24:50.131Z,5.43
2019-04-22T01:27:17.463Z,6.67
2019-04-22T01:29:51.779Z,7.27
2019-04-22T01:32:21.705Z,5.30
2019-04-22T01:34:56.567Z,5.33
2019-04-22T01:37:36.124Z,7.57
2019-04-22T01:40:21.463Z,6.63
2019-04-22T01:42:57.544Z,5.70
2019-04-22T01:45:22.606Z,6.20
2019-04-22T01:50:29.295Z,6.27
2019-04-22T01:52:58.671Z,6.10
2019-04-22T01:55:35.672Z,4.93
2019-04-22T01:57:53.548Z,5.83
2019-04-22T02:00:27.238Z,6.53
2019-04-22T02:03:04.141Z,6.30
2019-04-22T02:05:28.638Z,5.00
2019-04-22T02:08:06.803Z,6.13
2019-04-22T02:10:53.045Z,6.17
2019-04-22T02:13:20.065Z,5.47
2019-04-22T02:15:47.992Z,4.93
2019-04-22T02:21:03.075Z,5.07
2019-04-22T02:23:45.185Z,4.83
2019-04-22T02:26:07.584Z,5.23
2019-04-22T02:34:09.286Z,6.73
2019-04-22T02:47:04.422Z,5.07
2019-04-22T02:49:25.202Z,4.77
2019-04-22T02:52:13.174Z,5.60
2019-04-22T02:54:38.369Z,5.47
2019-04-22T02:57:09.337Z,5.57
2019-04-22T02:59:32.570Z,7.33
2019-04-22T03:02:07.695Z,6.50
2019-04-22T03:07:05.485Z,6.17
2019-04-22T03:12:19.603Z,4.70
2019-04-22T03:14:46.234Z,5.87
2019-04-22T03:17:15.903Z,5.43
2019-04-22T03:19:50.487Z,4.40
2019-04-22T03:22:19.276Z,5.37
2019-04-22T03:24:50.294Z,6.43
2019-04-22T03:27:16.391Z,4.93
2019-04-22T03:40:22.742Z,6.67
2019-04-22T03:45:28.376Z,5.47
2019-04-22T03:47:50.876Z,5.17
2019-04-22T03:52:56.569Z,5.80
2019-04-22T03:55:23.647Z,5.93
2019-04-22T03:57:53.022Z,5.33
2019-04-22T04:00:42.985Z,4.20
2019-04-22T04:05:39.143Z,5.57
2019-04-22T04:08:05.885Z,4.47
2019-04-22T04:10:39.719Z,5.57
2019-04-22T04:13:17.712Z,7.93
2019-04-22T04:15:33.956Z,4.83
2019-04-22T04:18:09.141Z,5.33
2019-04-22T04:21:01.878Z,6.90
2019-04-22T04:30:46.566Z,5.10
2019-04-22T04:33:35.890Z,5.43
2019-04-22T04:38:34.149Z,6.03
2019-04-22T04:40:57.501Z,5.03
2019-04-22T04:43:35.033Z,5.63
2019-04-22T04:46:06.896Z,7.00
2019-04-22T04:51:16.016Z,4.00
2019-04-22T04:53:53.885Z,6.10
2019-04-22T05:01:25.160Z,6.40
2019-04-22T05:09:13.554Z,5.87
2019-04-22T05:11:40.718Z,4.90
2019-04-22T05:21:36.358Z,5.27
2019-04-22T05:24:17.972Z,5.17
2019-04-22T05:26:44.151Z,6.63
2019-04-22T05:29:11.138Z,4.97
2019-04-22T05:34:08.515Z,6.50
2019-04-22T05:36:41.356Z,5.53
2019-04-22T05:41:48.766Z,5.83
2019-04-22T05:44:14.472Z,4.83
2019-04-22T05:46:47.500Z,4.43
2019-04-22T05:49:25.780Z,4.87
2019-04-22T05:51:48.061Z,4.40
2019-04-22T05:56:47.736Z,5.03
2019-04-22T05:59:24.970Z,4.53
2019-04-22T06:01:59.706Z,3.97
2019-04-22T06:04:25.621Z,4.57
2019-04-22T06:06:57.214Z,5.10
2019-04-22T06:09:28.762Z,4.90
2019-04-22T06:12:00.399Z,3.77
2019-04-22T06:14:42.590Z,3.57
2019-04-22T06:17:19.972Z,4.67
2019-04-22T06:19:49.137Z,4.67
2019-04-22T06:22:26.841Z,5.70
2019-04-22T06:24:49.094Z,6.23
2019-04-22T06:27:42.881Z,5.43
2019-04-22T06:30:02.747Z,4.17
2019-04-22T06:32:31.339Z,5.50
2019-04-22T06:35:19.831Z,3.57
2019-04-22T06:37:43.411Z,5.67
2019-04-22T06:40:16.889Z,4.57
2019-04-22T06:42:52.597Z,5.37
2019-04-22T06:45:18.904Z,4.57
2019-04-22T06:48:02.653Z,4.83
2019-04-22T06:50:23.071Z,5.07
2019-04-22T06:52:56.796Z,4.37
2019-04-22T06:58:00.360Z,3.40
2019-04-22T07:00:38.645Z,3.90
2019-04-22T07:03:30.097Z,4.27
2019-04-22T07:05:43.410Z,3.97
2019-04-22T07:08:59.639Z,3.70
2019-04-22T07:10:47.683Z,5.33
2019-04-22T07:16:18.697Z,4.13
2019-04-22T07:23:41.720Z,3.73
2019-04-22T07:26:05.978Z,5.23
2019-04-22T07:28:29.483Z,5.97
2019-04-22T07:31:10.294Z,4.20
2019-04-22T07:33:48.854Z,4.50
2019-04-22T07:36:30.662Z,6.00
2019-04-22T07:38:36.147Z,7.67
2019-04-22T07:41:17.249Z,4.83
2019-04-22T07:44:10.332Z,3.50
2019-04-22T07:46:18.521Z,3.83
2019-04-22T07:49:06.296Z,4.33
2019-04-22T07:54:06.552Z,4.90
2019-04-22T07:56:38.166Z,4.00
2019-04-22T07:59:13.899Z,3.80
2019-04-22T08:01:38.606Z,3.70
2019-04-22T08:04:23.011Z,4.87
2019-04-22T08:06:52.612Z,4.10
2019-04-22T08:09:20.212Z,5.07
2019-04-22T08:11:53.979Z,4.57
2019-04-22T08:14:20.964Z,4.47
2019-04-22T08:16:54.705Z,6.60
2019-04-22T08:21:56.266Z,5.73
2019-04-22T08:24:24.885Z,5.07
2019-04-22T08:26:58.253Z,4.10
2019-04-22T08:29:37.656Z,6.77
2019-04-22T08:32:01.153Z,5.63
2019-04-22T08:34:31.012Z,4.47
2019-04-22T08:39:32.577Z,5.73
2019-04-22T08:42:08.329Z,3.73
2019-04-22T08:45:04.794Z,6.30
2019-04-22T08:49:54.558Z,3.50
2019-04-22T08:52:20.822Z,4.57
2019-04-22T08:54:50.609Z,5.57
2019-04-22T08:57:34.718Z,4.27
2019-04-22T09:04:54.019Z,4.77
2019-04-22T09:12:49.992Z,4.07
2019-04-22T09:14:56.162Z,6.77
2019-04-22T09:17:34.974Z,4.70
2019-04-22T09:20:10.914Z,3.73
2019-04-22T09:22:47.066Z,3.53
2019-04-22T09:25:22.170Z,3.57
2019-04-22T09:27:51.149Z,3.53
2019-04-22T09:30:26.005Z,3.30
2019-04-22T09:32:59.223Z,5.27
2019-04-22T09:35:24.781Z,3.57
2019-04-22T09:40:21.782Z,7.67
2019-04-22T09:43:06.453Z,4.10
2019-04-22T09:45:37.789Z,3.30
2019-04-22T09:48:08.299Z,3.30
2019-04-22T09:50:43.178Z,9.77
2019-04-22T09:53:15.050Z,3.80
2019-04-22T09:55:55.603Z,4.03
2019-04-22T09:58:23.558Z,3.70
2019-04-22T10:03:56.553Z,3.60
2019-04-22T10:11:50.847Z,5.87
2019-04-22T10:14:23.902Z,3.80
2019-04-22T10:16:50.708Z,4.33
2019-04-22T10:19:23.143Z,4.57
2019-04-22T10:22:07.331Z,5.73
2019-04-22T10:24:19.233Z,6.10
2019-04-22T10:26:55.203Z,4.87
2019-04-22T10:29:26.084Z,3.60
2019-04-22T10:31:54.518Z,6.00
2019-04-22T10:34:15.695Z,4.23
2019-04-22T10:36:37.832Z,4.87
2019-04-22T10:39:08.566Z,4.93
2019-04-22T10:41:38.937Z,4.63
2019-04-22T10:44:11.119Z,5.63
2019-04-22T10:46:42.302Z,3.70
2019-04-22T10:49:12.564Z,3.03
2019-04-22T10:51:42.400Z,4.20
2019-04-22T10:54:15.689Z,3.83
2019-04-22T10:56:45.851Z,4.77
2019-04-22T10:59:16.332Z,4.10
2019-04-22T11:01:46.509Z,3.47
2019-04-22T11:04:15.609Z,4.80
2019-04-22T11:06:55.327Z,3.70
2019-04-22T11:09:18.383Z,4.40
2019-04-22T11:11:56.533Z,4.00
2019-04-22T11:14:19.113Z,3.40
2019-04-22T11:16:48.190Z,4.03
2019-04-22T11:19:17.377Z,4.60
2019-04-22T11:21:57.691Z,2.93
2019-04-22T11:24:18.920Z,5.37
2019-04-22T11:26:50.997Z,3.40
2019-04-22T11:29:21.357Z,3.20
2019-04-22T11:31:54.621Z,4.20
2019-04-22T11:34:24.931Z,2.97
2019-04-22T11:36:54.945Z,3.47
2019-04-22T11:39:30.612Z,4.00
2019-04-22T11:42:00.472Z,3.27
2019-04-22T11:44:30.859Z,3.23
2019-04-22T11:47:01.552Z,3.40
2019-04-22T11:49:31.928Z,3.47
2019-04-22T11:52:01.143Z,4.10
2019-04-22T11:54:34.632Z,3.87
2019-04-22T11:57:05.322Z,3.27
2019-04-22T11:59:38.561Z,3.83
2019-04-22T12:02:08.904Z,4.33
2019-04-22T12:04:40.349Z,4.20
2019-04-22T12:07:12.848Z,4.30
2019-04-22T12:09:41.974Z,2.87
2019-04-22T12:12:11.928Z,3.15
2019-04-22T12:14:45.769Z,7.42
2019-04-22T12:17:15.983Z,2.72
2019-04-22T12:19:54.124Z,3.52
2019-04-22T12:22:23.103Z,4.78
2019-04-22T12:24:52.473Z,3.67
2019-04-22T12:27:22.821Z,4.83
2019-04-22T12:29:56.616Z,2.65
2019-04-22T12:32:27.440Z,3.50
2019-04-22T12:34:57.491Z,5.03
2019-04-22T12:37:35.651Z,4.22
2019-04-22T12:40:00.363Z,3.52
2019-04-22T12:42:29.407Z,2.65
2019-04-22T12:44:58.459Z,2.85
2019-04-22T12:47:28.300Z,2.95
2019-04-22T12:50:10.340Z,3.72
2019-04-22T12:52:38.177Z,4.03
2019-04-22T12:55:05.949Z,4.20
2019-04-22T12:57:36.727Z,4.00
2019-04-22T13:00:07.936Z,3.08
2019-04-22T13:02:37.071Z,3.60
2019-04-22T13:05:06.306Z,2.50
2019-04-22T13:07:35.674Z,2.92
2019-04-22T13:10:11.852Z,2.55
2019-04-22T13:12:45.099Z,4.28
2019-04-22T13:15:15.897Z,4.17
2019-04-22T13:17:46.274Z,2.62
2019-04-22T13:20:18.241Z,2.72
2019-04-22T13:22:46.161Z,3.22
2019-04-22T13:25:17.626Z,2.30
2019-04-22T13:27:46.865Z,2.37
2019-04-22T13:30:18.570Z,2.70
2019-04-22T13:32:49.130Z,4.20
2019-04-22T13:35:20.231Z,2.90
2019-04-22T13:37:50.944Z,2.30
2019-04-22T13:40:23.395Z,2.33
2019-04-22T13:42:53.562Z,2.98
2019-04-22T13:45:22.633Z,2.10
2019-04-22T13:48:11.567Z,3.65
2019-04-22T13:50:59.492Z,1.72
2019-04-22T13:55:56.398Z,2.02
2019-04-22T13:58:14.053Z,2.27
2019-04-22T14:00:38.446Z,2.92
2019-04-22T14:03:29.057Z,2.60
2019-04-22T14:06:02.603Z,2.07
2019-04-22T14:08:33.089Z,2.70
2019-04-22T14:11:14.888Z,2.50
2019-04-22T14:13:34.208Z,2.33
2019-04-22T14:16:04.760Z,2.83
2019-04-22T14:18:34.935Z,3.40
2019-04-22T14:21:06.983Z,1.60
2019-04-22T14:23:44.695Z,2.27
2019-04-22T14:26:17.469Z,5.10
2019-04-22T14:28:48.094Z,1.90
2019-04-22T14:31:18.268Z,2.07
2019-04-22T14:33:55.990Z,2.90
2019-04-22T14:36:27.464Z,2.40
2019-04-22T14:39:00.182Z,2.67
2019-04-22T14:41:40.618Z,2.03
2019-04-22T14:45:05.191Z,1.70
2019-04-22T14:47:03.468Z,2.20
2019-04-22T14:52:05.995Z,2.83
2019-04-22T14:54:26.458Z,2.30
2019-04-22T14:56:46.553Z,1.80
2019-04-22T14:59:16.701Z,2.30
2019-04-22T15:01:45.795Z,3.40
2019-04-22T15:04:19.288Z,1.80
2019-04-22T15:06:52.681Z,1.70
2019-04-22T15:09:28.154Z,3.10
2019-04-22T15:12:14.821Z,2.10
2019-04-22T15:14:35.416Z,3.67
2019-04-22T15:17:16.548Z,1.63
2019-04-22T15:19:51.988Z,2.20
2019-04-22T15:22:24.074Z,2.17
2019-04-22T15:24:56.665Z,1.70
2019-04-22T15:27:28.918Z,1.50
2019-04-22T15:29:59.452Z,2.37
2019-04-22T15:32:29.546Z,1.60
2019-04-22T15:34:59.613Z,2.57
2019-04-22T15:37:28.602Z,2.43
2019-04-22T15:40:00.645Z,3.33
2019-04-22T15:42:35.564Z,1.90
2019-04-22T15:45:00.272Z,2.50
2019-04-22T15:47:29.306Z,1.40
2019-04-22T15:50:00.170Z,4.85
2019-04-22T15:52:37.870Z,2.87
2019-04-22T15:55:02.943Z,2.77
2019-04-22T15:57:34.650Z,2.90
2019-04-22T16:00:18.121Z,2.92
2019-04-22T16:02:37.425Z,2.65
2019-04-22T16:05:06.791Z,2.70
2019-04-22T16:07:39.938Z,3.15
2019-04-22T16:10:10.113Z,3.17
2019-04-22T16:12:47.521Z,1.62
2019-04-22T16:15:11.630Z,2.77
2019-04-22T16:17:48.830Z,3.05
2019-04-22T16:20:15.158Z,2.65
2019-04-22T16:23:25.579Z,2.30
2019-04-22T16:25:59.133Z,1.82
2019-04-22T16:28:37.692Z,1.77
2019-04-22T16:31:07.339Z,2.27
2019-04-22T16:33:39.877Z,2.12
2019-04-22T16:36:08.857Z,2.20
2019-04-22T16:38:38.286Z,5.17
2019-04-22T16:41:10.904Z,2.20
2019-04-22T16:43:42.981Z,2.43
2019-04-22T16:46:11.962Z,1.60
2019-04-22T16:48:41.162Z,2.47
2019-04-22T16:51:11.785Z,2.80
2019-04-22T16:53:41.152Z,3.60
2019-04-22T16:56:13.213Z,2.37
2019-04-22T16:58:43.057Z,3.70
2019-04-22T17:01:36.809Z,2.17
2019-04-22T17:04:30.611Z,2.23
2019-04-22T17:06:59.607Z,3.20
2019-04-22T17:09:34.488Z,2.50
2019-04-22T17:12:07.818Z,2.20
2019-04-22T17:14:44.447Z,2.30
2019-04-22T17:17:10.893Z,1.93
2019-04-22T17:19:39.848Z,2.93
2019-04-22T17:22:17.875Z,2.07
2019-04-22T17:24:47.932Z,2.17
2019-04-22T17:27:18.104Z,2.63
2019-04-22T17:29:48.343Z,2.67
2019-04-22T17:32:20.880Z,3.07
2019-04-22T17:34:49.596Z,1.73
2019-04-22T17:37:25.908Z,4.50
2019-04-22T17:40:07.306Z,1.90
2019-04-22T17:42:40.266Z,3.53
2019-04-22T17:45:40.205Z,2.20
2019-04-22T17:48:31.214Z,4.03
2019-04-22T17:51:14.546Z,2.40
2019-04-22T17:53:34.847Z,1.87
2019-04-22T17:56:02.163Z,2.77
2019-04-22T17:58:45.134Z,2.50
2019-04-22T18:01:10.751Z,2.10
2019-04-22T18:03:30.518Z,4.47
2019-04-22T18:05:58.216Z,2.47
2019-04-22T18:08:44.255Z,5.67
2019-04-22T18:11:23.893Z,2.60
2019-04-22T18:13:51.462Z,3.33
2019-04-22T18:16:17.876Z,3.93
2019-04-22T18:18:47.696Z,3.40
2019-04-22T18:21:17.306Z,5.00
2019-04-22T18:23:46.111Z,3.87
2019-04-22T18:26:23.011Z,4.33
2019-04-22T18:28:54.395Z,4.27
2019-04-22T18:31:26.060Z,2.80
2019-04-22T18:33:58.833Z,3.10
2019-04-22T18:36:22.780Z,5.20
2019-04-22T18:39:04.517Z,5.00
2019-04-22T18:41:34.248Z,3.07
2019-04-22T18:44:06.267Z,2.80
2019-04-22T18:46:36.976Z,3.40
2019-04-22T18:49:08.156Z,2.60
2019-04-22T18:51:45.395Z,3.27
2019-04-22T18:54:49.862Z,5.47
2019-04-22T18:57:09.917Z,4.23
2019-04-22T18:59:31.430Z,4.43
2019-04-22T19:02:05.231Z,4.43
2019-04-22T19:04:40.989Z,4.53
2019-04-22T19:07:31.037Z,4.83
2019-04-22T19:10:08.214Z,3.73
2019-04-22T19:12:59.472Z,4.90
2019-04-22T19:15:03.512Z,3.20
2019-04-22T19:17:40.453Z,4.87
2019-04-22T19:20:13.316Z,4.13
2019-04-22T19:22:36.534Z,4.40
2019-04-22T19:24:59.924Z,3.23
2019-04-22T19:27:39.291Z,6.57
2019-04-22T19:30:10.514Z,3.83
2019-04-22T19:32:40.467Z,3.13
2019-04-22T19:35:14.004Z,3.60
2019-04-22T19:37:42.467Z,3.57
2019-04-22T19:40:24.082Z,3.13
2019-04-22T19:42:57.341Z,4.43
2019-04-22T19:45:24.484Z,5.07
2019-04-22T19:48:08.363Z,4.67
2019-04-22T19:50:38.003Z,3.17
2019-04-22T19:52:59.470Z,4.57
2019-04-22T19:55:32.586Z,3.50
2019-04-22T19:58:01.677Z,3.57
2019-04-22T20:00:46.948Z,2.30
2019-04-22T20:03:48.318Z,2.90
2019-04-22T20:06:13.017Z,2.87
2019-04-22T20:08:48.452Z,2.73
2019-04-22T20:11:19.710Z,3.70
2019-04-22T20:13:49.674Z,3.37
2019-04-22T20:16:11.506Z,3.80
2019-04-22T20:18:52.242Z,6.17
2019-04-22T20:21:28.566Z,4.57
2019-04-22T20:23:51.470Z,3.43
2019-04-22T20:26:24.869Z,5.63
2019-04-22T20:28:57.538Z,2.87
2019-04-22T20:31:31.840Z,2.23
2019-04-22T20:34:10.855Z,3.47
2019-04-22T20:36:52.315Z,2.90
2019-04-22T20:38:58.795Z,4.33
2019-04-22T20:41:34.161Z,2.30
2019-04-22T20:44:15.971Z,3.27
2019-04-22T20:46:44.693Z,3.07
2019-04-22T20:49:21.807Z,5.10
2019-04-22T20:51:53.690Z,4.60
2019-04-22T20:54:17.766Z,4.17
2019-04-22T20:56:44.065Z,2.20
2019-04-22T20:59:18.061Z,3.13
2019-04-22T21:01:43.235Z,3.97
2019-04-22T21:04:03.504Z,3.63
2019-04-22T21:06:47.705Z,3.90
2019-04-22T21:09:22.069Z,3.53
2019-04-22T21:11:48.367Z,2.67
2019-04-22T21:14:21.657Z,2.33
2019-04-22T21:16:57.504Z,4.93
2019-04-22T21:19:38.184Z,3.23
2019-04-22T21:22:03.212Z,2.83
2019-04-22T21:24:32.974Z,5.77
2019-04-22T21:27:08.938Z,3.67
2019-04-22T21:29:32.157Z,3.47
2019-04-22T21:32:10.479Z,4.07
2019-04-22T21:34:43.749Z,3.33
2019-04-22T21:37:14.167Z,3.17
2019-04-22T21:39:39.907Z,4.13
2019-04-22T21:42:14.317Z,5.30
2019-04-22T21:44:42.659Z,1.87
2019-04-22T21:47:16.028Z,1.70
2019-04-22T21:49:45.860Z,1.90
2019-04-22T21:52:13.533Z,3.83
2019-04-22T21:54:46.755Z,2.53
2019-04-22T21:57:33.707Z,2.93
2019-04-22T22:00:03.499Z,5.30
2019-04-22T22:02:41.113Z,3.43
2019-04-22T22:05:00.137Z,3.87
2019-04-22T22:07:22.020Z,3.50
2019-04-22T22:10:09.662Z,3.70
2019-04-22T22:12:45.992Z,1.73
2019-04-22T22:15:07.279Z,2.50
2019-04-22T22:17:40.406Z,4.03
2019-04-22T22:20:08.562Z,2.07
2019-04-22T22:22:56.226Z,2.90
2019-04-22T22:25:16.355Z,3.03
2019-04-22T22:27:40.799Z,4.77
2019-04-22T22:32:51.033Z,4.50
2019-04-22T22:35:18.959Z,2.10
2019-04-22T22:37:44.480Z,2.83
2019-04-22T22:40:06.545Z,5.13
2019-04-22T22:42:36.387Z,3.93
2019-04-22T22:45:07.845Z,4.30
2019-04-22T22:47:48.752Z,2.97
2019-04-22T22:50:24.329Z,2.97
2019-04-22T22:53:06.692Z,2.80
2019-04-22T22:55:31.283Z,2.13
2019-04-22T22:57:59.860Z,2.87
2019-04-22T23:00:28.748Z,2.00
2019-04-22T23:03:27.571Z,3.20
2019-04-22T23:05:30.794Z,2.40
2019-04-22T23:07:58.732Z,3.03
2019-04-22T23:10:48.088Z,2.63
2019-04-22T23:13:08.503Z,2.33
2019-04-22T23:15:27.487Z,2.33
2019-04-22T23:17:47.890Z,4.00
2019-04-22T23:20:18.527Z,2.87
2019-04-22T23:23:12.334Z,3.00
2019-04-22T23:25:45.031Z,6.60
2019-04-22T23:28:28.219Z,2.63
2019-04-22T23:31:23.613Z,2.57
2019-04-22T23:34:07.842Z,2.37
2019-04-22T23:36:50.080Z,2.63
2019-04-22T23:39:35.603Z,2.60
2019-04-22T23:42:04.811Z,2.20
2019-04-22T23:44:31.918Z,3.00
2019-04-22T23:47:06.014Z,2.63
2019-04-22T23:49:32.254Z,2.57
2019-04-22T23:52:16.263Z,3.07
2019-04-22T23:54:50.765Z,2.73
2019-04-22T23:57:15.496Z,2.73
2019-04-22T23:59:49.380Z,2.63
